sensor_id;sensor_type;location;lat;lon;timestamp;temperature;humidity
27016;DHT22;14557;0.000;0.000;2023-03-25T00:01:28;21.90;59.80
27016;DHT22;14557;0.000;0.000;2023-03-25T00:04:00;21.90;60.00
27016;DHT22;14557;0.000;0.000;2023-03-25T00:06:28;21.90;59.90
27016;DHT22;14557;0.000;0.000;2023-03-25T00:08:54;21.90;60.00
27016;DHT22;14557;0.000;0.000;2023-03-25T00:11:20;21.90;59.80
27016;DHT22;14557;0.000;0.000;2023-03-25T00:13:46;21.90;60.00
27016;DHT22;14557;0.000;0.000;2023-03-25T00:16:13;21.90;59.90
27016;DHT22;14557;0.000;0.000;2023-03-25T00:18:38;21.90;59.90
27016;DHT22;14557;0.000;0.000;2023-03-25T00:21:04;21.90;59.90
27016;DHT22;14557;0.000;0.000;2023-03-25T00:23:35;21.90;59.80
27016;DHT22;14557;0.000;0.000;2023-03-25T00:26:01;21.90;59.90
27016;DHT22;14557;0.000;0.000;2023-03-25T00:28:28;21.90;59.80
27016;DHT22;14557;0.000;0.000;2023-03-25T00:30:57;21.90;59.80
27016;DHT22;14557;0.000;0.000;2023-03-25T00:33:23;21.90;59.80
27016;DHT22;14557;0.000;0.000;2023-03-25T00:35:50;21.90;59.70
27016;DHT22;14557;0.000;0.000;2023-03-25T00:38:16;21.80;59.50
27016;DHT22;14557;0.000;0.000;2023-03-25T00:40:42;21.80;59.40
27016;DHT22;14557;0.000;0.000;2023-03-25T00:43:08;21.80;59.30
27016;DHT22;14557;0.000;0.000;2023-03-25T00:45:34;21.80;59.30
27016;DHT22;14557;0.000;0.000;2023-03-25T00:47:59;21.80;59.80
27016;DHT22;14557;0.000;0.000;2023-03-25T00:50:25;21.80;59.20
27016;DHT22;14557;0.000;0.000;2023-03-25T00:52:51;21.80;59.20
27016;DHT22;14557;0.000;0.000;2023-03-25T00:55:18;21.70;59.20
27016;DHT22;14557;0.000;0.000;2023-03-25T00:57:43;21.70;59.10
27016;DHT22;14557;0.000;0.000;2023-03-25T01:00:10;21.70;59.10
27016;DHT22;14557;0.000;0.000;2023-03-25T01:02:36;21.70;59.10
27016;DHT22;14557;0.000;0.000;2023-03-25T01:05:05;21.70;59.10
27016;DHT22;14557;0.000;0.000;2023-03-25T01:07:31;21.70;59.10
27016;DHT22;14557;0.000;0.000;2023-03-25T01:09:57;21.70;59.10
27016;DHT22;14557;0.000;0.000;2023-03-25T01:12:23;21.70;59.10
27016;DHT22;14557;0.000;0.000;2023-03-25T01:14:49;21.70;59.00
27016;DHT22;14557;0.000;0.000;2023-03-25T01:17:14;21.60;59.00
27016;DHT22;14557;0.000;0.000;2023-03-25T01:19:40;21.70;59.00
27016;DHT22;14557;0.000;0.000;2023-03-25T01:22:06;21.60;59.00
27016;DHT22;14557;0.000;0.000;2023-03-25T01:24:32;21.60;59.00
27016;DHT22;14557;0.000;0.000;2023-03-25T01:26:58;21.60;58.90
27016;DHT22;14557;0.000;0.000;2023-03-25T01:29:23;21.60;58.90
27016;DHT22;14557;0.000;0.000;2023-03-25T01:31:49;21.60;58.90
27016;DHT22;14557;0.000;0.000;2023-03-25T01:34:15;21.60;58.90
27016;DHT22;14557;0.000;0.000;2023-03-25T01:36:41;21.60;58.90
27016;DHT22;14557;0.000;0.000;2023-03-25T01:39:11;21.50;58.80
27016;DHT22;14557;0.000;0.000;2023-03-25T01:41:37;21.60;58.90
27016;DHT22;14557;0.000;0.000;2023-03-25T01:44:07;21.60;58.80
27016;DHT22;14557;0.000;0.000;2023-03-25T01:46:36;21.50;58.70
27016;DHT22;14557;0.000;0.000;2023-03-25T01:49:03;21.50;58.70
27016;DHT22;14557;0.000;0.000;2023-03-25T01:51:30;21.50;58.70
27016;DHT22;14557;0.000;0.000;2023-03-25T01:53:57;21.50;58.70
27016;DHT22;14557;0.000;0.000;2023-03-25T01:56:44;21.50;58.70
27016;DHT22;14557;0.000;0.000;2023-03-25T01:59:10;21.50;58.70
27016;DHT22;14557;0.000;0.000;2023-03-25T02:01:37;21.50;58.70
27016;DHT22;14557;0.000;0.000;2023-03-25T02:04:02;21.40;58.70
27016;DHT22;14557;0.000;0.000;2023-03-25T02:06:37;21.40;58.70
27016;DHT22;14557;0.000;0.000;2023-03-25T02:09:04;21.40;58.60
27016;DHT22;14557;0.000;0.000;2023-03-25T02:11:37;21.40;58.60
27016;DHT22;14557;0.000;0.000;2023-03-25T02:14:06;21.40;58.60
27016;DHT22;14557;0.000;0.000;2023-03-25T02:35:45;21.30;58.50
27016;DHT22;14557;0.000;0.000;2023-03-25T02:43:04;21.30;58.50
27016;DHT22;14557;0.000;0.000;2023-03-25T02:45:33;21.30;58.50
27016;DHT22;14557;0.000;0.000;2023-03-25T02:48:14;21.30;58.50
27016;DHT22;14557;0.000;0.000;2023-03-25T02:50:44;21.30;58.50
27016;DHT22;14557;0.000;0.000;2023-03-25T02:53:13;21.20;58.40
27016;DHT22;14557;0.000;0.000;2023-03-25T02:55:40;21.20;58.40
27016;DHT22;14557;0.000;0.000;2023-03-25T02:58:07;21.20;58.40
27016;DHT22;14557;0.000;0.000;2023-03-25T03:00:34;21.20;58.40
27016;DHT22;14557;0.000;0.000;2023-03-25T03:03:03;21.20;58.40
27016;DHT22;14557;0.000;0.000;2023-03-25T03:05:30;21.20;58.40
27016;DHT22;14557;0.000;0.000;2023-03-25T03:08:13;21.10;58.40
27016;DHT22;14557;0.000;0.000;2023-03-25T03:11:00;21.10;58.40
27016;DHT22;14557;0.000;0.000;2023-03-25T03:16:10;21.10;58.40
27016;DHT22;14557;0.000;0.000;2023-03-25T03:18:50;21.10;58.40
27016;DHT22;14557;0.000;0.000;2023-03-25T03:22:11;21.10;58.40
27016;DHT22;14557;0.000;0.000;2023-03-25T03:26:37;21.00;58.30
27016;DHT22;14557;0.000;0.000;2023-03-25T03:29:12;21.00;58.30
27016;DHT22;14557;0.000;0.000;2023-03-25T03:31:40;21.00;58.30
27016;DHT22;14557;0.000;0.000;2023-03-25T03:34:08;21.00;58.30
27016;DHT22;14557;0.000;0.000;2023-03-25T03:36:41;21.00;58.30
27016;DHT22;14557;0.000;0.000;2023-03-25T03:39:15;21.00;58.30
27016;DHT22;14557;0.000;0.000;2023-03-25T03:41:44;21.00;58.30
27016;DHT22;14557;0.000;0.000;2023-03-25T03:44:15;21.00;58.30
27016;DHT22;14557;0.000;0.000;2023-03-25T03:49:15;21.00;58.30
27016;DHT22;14557;0.000;0.000;2023-03-25T03:51:46;20.90;58.20
27016;DHT22;14557;0.000;0.000;2023-03-25T03:54:23;20.90;58.30
27016;DHT22;14557;0.000;0.000;2023-03-25T03:59:29;20.90;58.30
27016;DHT22;14557;0.000;0.000;2023-03-25T04:01:59;20.90;58.30
27016;DHT22;14557;0.000;0.000;2023-03-25T04:04:25;20.90;58.30
27016;DHT22;14557;0.000;0.000;2023-03-25T04:11:53;20.90;58.30
27016;DHT22;14557;0.000;0.000;2023-03-25T04:14:20;20.90;58.30
27016;DHT22;14557;0.000;0.000;2023-03-25T04:16:46;20.90;58.30
27016;DHT22;14557;0.000;0.000;2023-03-25T04:19:12;20.80;58.30
27016;DHT22;14557;0.000;0.000;2023-03-25T04:21:44;20.80;58.20
27016;DHT22;14557;0.000;0.000;2023-03-25T04:24:10;20.80;58.20
27016;DHT22;14557;0.000;0.000;2023-03-25T04:26:35;20.80;58.20
27016;DHT22;14557;0.000;0.000;2023-03-25T04:29:02;20.80;58.30
27016;DHT22;14557;0.000;0.000;2023-03-25T04:31:28;20.80;58.30
27016;DHT22;14557;0.000;0.000;2023-03-25T04:33:55;20.80;58.30
27016;DHT22;14557;0.000;0.000;2023-03-25T04:36:22;20.80;58.30
27016;DHT22;14557;0.000;0.000;2023-03-25T04:38:48;20.80;58.30
27016;DHT22;14557;0.000;0.000;2023-03-25T04:41:13;20.80;58.30
27016;DHT22;14557;0.000;0.000;2023-03-25T04:43:39;20.70;58.20
27016;DHT22;14557;0.000;0.000;2023-03-25T04:46:07;20.70;58.20
27016;DHT22;14557;0.000;0.000;2023-03-25T04:48:35;20.70;58.30
27016;DHT22;14557;0.000;0.000;2023-03-25T04:51:06;20.70;58.30
27016;DHT22;14557;0.000;0.000;2023-03-25T04:53:35;20.70;58.20
27016;DHT22;14557;0.000;0.000;2023-03-25T04:56:00;20.70;58.20
27016;DHT22;14557;0.000;0.000;2023-03-25T04:58:26;20.70;58.20
27016;DHT22;14557;0.000;0.000;2023-03-25T05:00:51;20.70;58.20
27016;DHT22;14557;0.000;0.000;2023-03-25T05:03:17;20.70;58.20
27016;DHT22;14557;0.000;0.000;2023-03-25T05:05:50;20.60;58.20
27016;DHT22;14557;0.000;0.000;2023-03-25T05:08:17;20.60;58.20
27016;DHT22;14557;0.000;0.000;2023-03-25T05:10:42;20.70;58.20
27016;DHT22;14557;0.000;0.000;2023-03-25T05:13:08;20.70;58.20
27016;DHT22;14557;0.000;0.000;2023-03-25T05:15:35;20.60;58.10
27016;DHT22;14557;0.000;0.000;2023-03-25T05:18:07;20.60;58.20
27016;DHT22;14557;0.000;0.000;2023-03-25T05:20:40;20.60;58.20
27016;DHT22;14557;0.000;0.000;2023-03-25T05:23:07;20.60;58.20
27016;DHT22;14557;0.000;0.000;2023-03-25T05:25:39;20.60;58.20
27016;DHT22;14557;0.000;0.000;2023-03-25T05:28:06;20.60;58.20
27016;DHT22;14557;0.000;0.000;2023-03-25T05:30:35;20.60;58.20
27016;DHT22;14557;0.000;0.000;2023-03-25T05:33:04;20.50;58.10
27016;DHT22;14557;0.000;0.000;2023-03-25T05:35:29;20.50;58.10
27016;DHT22;14557;0.000;0.000;2023-03-25T05:37:55;20.50;58.10
27016;DHT22;14557;0.000;0.000;2023-03-25T05:40:21;20.50;58.10
27016;DHT22;14557;0.000;0.000;2023-03-25T05:42:46;20.50;58.20
27016;DHT22;14557;0.000;0.000;2023-03-25T05:45:16;20.50;58.20
27016;DHT22;14557;0.000;0.000;2023-03-25T05:47:42;20.50;58.20
27016;DHT22;14557;0.000;0.000;2023-03-25T05:50:08;20.50;58.10
27016;DHT22;14557;0.000;0.000;2023-03-25T05:52:35;20.50;58.10
27016;DHT22;14557;0.000;0.000;2023-03-25T05:55:01;20.50;58.10
27016;DHT22;14557;0.000;0.000;2023-03-25T05:57:27;20.50;58.10
27016;DHT22;14557;0.000;0.000;2023-03-25T05:59:52;20.50;58.10
27016;DHT22;14557;0.000;0.000;2023-03-25T06:02:18;20.40;58.00
27016;DHT22;14557;0.000;0.000;2023-03-25T06:04:46;20.40;58.00
27016;DHT22;14557;0.000;0.000;2023-03-25T06:07:14;20.40;58.00
27016;DHT22;14557;0.000;0.000;2023-03-25T06:09:46;20.40;58.00
27016;DHT22;14557;0.000;0.000;2023-03-25T06:12:16;20.40;58.00
27016;DHT22;14557;0.000;0.000;2023-03-25T06:14:42;20.40;58.00
27016;DHT22;14557;0.000;0.000;2023-03-25T06:17:10;20.40;58.00
27016;DHT22;14557;0.000;0.000;2023-03-25T06:19:35;20.40;58.00
27016;DHT22;14557;0.000;0.000;2023-03-25T06:22:10;20.40;58.00
27016;DHT22;14557;0.000;0.000;2023-03-25T06:24:36;20.40;58.00
27016;DHT22;14557;0.000;0.000;2023-03-25T06:27:02;20.40;58.00
27016;DHT22;14557;0.000;0.000;2023-03-25T06:29:28;20.40;58.00
27016;DHT22;14557;0.000;0.000;2023-03-25T06:31:53;20.40;58.00
27016;DHT22;14557;0.000;0.000;2023-03-25T06:34:19;20.30;58.00
27016;DHT22;14557;0.000;0.000;2023-03-25T06:36:45;20.30;58.00
27016;DHT22;14557;0.000;0.000;2023-03-25T06:39:15;20.30;58.00
27016;DHT22;14557;0.000;0.000;2023-03-25T06:41:41;20.30;58.00
27016;DHT22;14557;0.000;0.000;2023-03-25T06:44:06;20.30;58.00
27016;DHT22;14557;0.000;0.000;2023-03-25T06:46:32;20.30;58.00
27016;DHT22;14557;0.000;0.000;2023-03-25T06:48:58;20.30;58.10
27016;DHT22;14557;0.000;0.000;2023-03-25T06:51:23;20.30;58.00
27016;DHT22;14557;0.000;0.000;2023-03-25T06:53:49;20.30;58.00
27016;DHT22;14557;0.000;0.000;2023-03-25T06:56:15;20.30;58.00
27016;DHT22;14557;0.000;0.000;2023-03-25T06:58:40;20.20;57.90
27016;DHT22;14557;0.000;0.000;2023-03-25T07:01:06;20.30;58.00
27016;DHT22;14557;0.000;0.000;2023-03-25T07:03:32;20.30;58.50
27016;DHT22;14557;0.000;0.000;2023-03-25T07:05:58;20.30;58.50
27016;DHT22;14557;0.000;0.000;2023-03-25T07:08:23;20.30;58.60
27016;DHT22;14557;0.000;0.000;2023-03-25T07:10:49;20.30;59.30
27016;DHT22;14557;0.000;0.000;2023-03-25T07:13:15;20.30;59.80
27016;DHT22;14557;0.000;0.000;2023-03-25T07:15:40;20.30;60.10
27016;DHT22;14557;0.000;0.000;2023-03-25T07:18:06;20.40;59.70
27016;DHT22;14557;0.000;0.000;2023-03-25T07:20:31;20.30;59.50
27016;DHT22;14557;0.000;0.000;2023-03-25T07:22:57;20.30;59.50
27016;DHT22;14557;0.000;0.000;2023-03-25T07:25:22;20.40;59.70
27016;DHT22;14557;0.000;0.000;2023-03-25T07:27:48;20.40;63.00
27016;DHT22;14557;0.000;0.000;2023-03-25T07:30:13;20.50;66.30
27016;DHT22;14557;0.000;0.000;2023-03-25T07:32:39;20.70;63.20
27016;DHT22;14557;0.000;0.000;2023-03-25T07:35:05;20.70;61.40
27016;DHT22;14557;0.000;0.000;2023-03-25T07:37:32;20.70;61.00
27016;DHT22;14557;0.000;0.000;2023-03-25T07:39:57;20.70;60.90
27016;DHT22;14557;0.000;0.000;2023-03-25T07:42:23;20.70;61.90
27016;DHT22;14557;0.000;0.000;2023-03-25T07:44:49;20.80;63.20
27016;DHT22;14557;0.000;0.000;2023-03-25T07:47:14;21.00;61.70
27016;DHT22;14557;0.000;0.000;2023-03-25T07:49:40;21.20;60.50
27016;DHT22;14557;0.000;0.000;2023-03-25T07:52:06;21.20;59.90
27016;DHT22;14557;0.000;0.000;2023-03-25T07:54:31;21.10;59.70
27016;DHT22;14557;0.000;0.000;2023-03-25T07:56:57;20.90;59.30
27016;DHT22;14557;0.000;0.000;2023-03-25T07:59:23;20.90;59.20
27016;DHT22;14557;0.000;0.000;2023-03-25T08:01:49;20.80;59.30
27016;DHT22;14557;0.000;0.000;2023-03-25T08:04:15;20.70;59.40
27016;DHT22;14557;0.000;0.000;2023-03-25T08:06:41;20.70;59.60
27016;DHT22;14557;0.000;0.000;2023-03-25T08:09:06;20.60;61.10
27016;DHT22;14557;0.000;0.000;2023-03-25T08:11:32;20.60;63.10
27016;DHT22;14557;0.000;0.000;2023-03-25T08:13:58;20.60;61.40
27016;DHT22;14557;0.000;0.000;2023-03-25T08:16:23;20.60;61.40
27016;DHT22;14557;0.000;0.000;2023-03-25T08:18:49;20.60;62.10
27016;DHT22;14557;0.000;0.000;2023-03-25T08:21:17;20.60;61.70
27016;DHT22;14557;0.000;0.000;2023-03-25T08:23:53;20.60;61.60
27016;DHT22;14557;0.000;0.000;2023-03-25T08:26:23;20.60;61.90
27016;DHT22;14557;0.000;0.000;2023-03-25T08:28:49;20.60;63.20
27016;DHT22;14557;0.000;0.000;2023-03-25T08:31:15;20.60;62.70
27016;DHT22;14557;0.000;0.000;2023-03-25T08:33:41;20.60;62.00
27016;DHT22;14557;0.000;0.000;2023-03-25T08:36:07;20.60;61.60
27016;DHT22;14557;0.000;0.000;2023-03-25T08:38:34;20.60;61.50
27016;DHT22;14557;0.000;0.000;2023-03-25T08:41:00;20.60;61.30
27016;DHT22;14557;0.000;0.000;2023-03-25T08:43:26;20.60;61.10
27016;DHT22;14557;0.000;0.000;2023-03-25T08:45:52;20.60;61.00
27016;DHT22;14557;0.000;0.000;2023-03-25T08:48:17;20.60;63.20
27016;DHT22;14557;0.000;0.000;2023-03-25T08:50:43;20.60;62.60
27016;DHT22;14557;0.000;0.000;2023-03-25T08:53:08;20.60;61.80
27016;DHT22;14557;0.000;0.000;2023-03-25T08:55:34;20.60;61.50
27016;DHT22;14557;0.000;0.000;2023-03-25T08:58:04;20.60;63.10
27016;DHT22;14557;0.000;0.000;2023-03-25T09:00:32;20.60;62.70
27016;DHT22;14557;0.000;0.000;2023-03-25T09:02:58;20.60;61.90
27016;DHT22;14557;0.000;0.000;2023-03-25T09:05:25;20.70;61.60
27016;DHT22;14557;0.000;0.000;2023-03-25T09:07:51;20.60;61.30
27016;DHT22;14557;0.000;0.000;2023-03-25T09:10:16;20.70;61.20
27016;DHT22;14557;0.000;0.000;2023-03-25T09:12:42;20.60;60.90
27016;DHT22;14557;0.000;0.000;2023-03-25T09:15:08;20.60;60.80
27016;DHT22;14557;0.000;0.000;2023-03-25T09:17:34;20.60;60.70
27016;DHT22;14557;0.000;0.000;2023-03-25T09:19:59;20.60;60.50
27016;DHT22;14557;0.000;0.000;2023-03-25T09:22:25;20.60;60.50
27016;DHT22;14557;0.000;0.000;2023-03-25T09:24:51;20.60;60.40
27016;DHT22;14557;0.000;0.000;2023-03-25T09:27:16;20.60;60.30
27016;DHT22;14557;0.000;0.000;2023-03-25T09:29:42;20.60;60.20
27016;DHT22;14557;0.000;0.000;2023-03-25T09:32:07;20.60;60.20
27016;DHT22;14557;0.000;0.000;2023-03-25T09:34:33;20.50;60.00
27016;DHT22;14557;0.000;0.000;2023-03-25T09:36:59;20.60;60.00
27016;DHT22;14557;0.000;0.000;2023-03-25T09:39:25;20.50;59.90
27016;DHT22;14557;0.000;0.000;2023-03-25T09:46:45;20.50;59.70
27016;DHT22;14557;0.000;0.000;2023-03-25T09:49:19;20.50;59.70
27016;DHT22;14557;0.000;0.000;2023-03-25T09:51:45;20.50;59.70
27016;DHT22;14557;0.000;0.000;2023-03-25T09:56:40;20.50;59.50
27016;DHT22;14557;0.000;0.000;2023-03-25T09:59:12;20.50;59.50
27016;DHT22;14557;0.000;0.000;2023-03-25T10:01:49;20.50;59.50
27016;DHT22;14557;0.000;0.000;2023-03-25T10:09:25;20.50;59.50
27016;DHT22;14557;0.000;0.000;2023-03-25T10:12:01;20.50;59.40
27016;DHT22;14557;0.000;0.000;2023-03-25T10:20:00;20.50;59.30
27016;DHT22;14557;0.000;0.000;2023-03-25T10:22:33;20.50;59.30
27016;DHT22;14557;0.000;0.000;2023-03-25T10:25:02;20.50;59.20
27016;DHT22;14557;0.000;0.000;2023-03-25T10:30:14;20.50;59.20
27016;DHT22;14557;0.000;0.000;2023-03-25T10:35:33;20.50;59.10
27016;DHT22;14557;0.000;0.000;2023-03-25T10:38:08;20.50;59.10
27016;DHT22;14557;0.000;0.000;2023-03-25T10:40:35;20.50;61.30
27016;DHT22;14557;0.000;0.000;2023-03-25T10:45:34;20.50;60.30
27016;DHT22;14557;0.000;0.000;2023-03-25T10:48:03;20.50;59.90
27016;DHT22;14557;0.000;0.000;2023-03-25T10:50:30;20.50;59.70
27016;DHT22;14557;0.000;0.000;2023-03-25T10:52:55;20.50;59.60
27016;DHT22;14557;0.000;0.000;2023-03-25T10:55:22;20.50;59.50
27016;DHT22;14557;0.000;0.000;2023-03-25T10:57:49;20.50;59.90
27016;DHT22;14557;0.000;0.000;2023-03-25T11:00:16;20.50;59.70
27016;DHT22;14557;0.000;0.000;2023-03-25T11:02:45;20.50;61.60
27016;DHT22;14557;0.000;0.000;2023-03-25T11:05:12;20.60;61.20
27016;DHT22;14557;0.000;0.000;2023-03-25T11:07:43;20.60;61.50
27016;DHT22;14557;0.000;0.000;2023-03-25T11:12:43;20.70;63.20
27016;DHT22;14557;0.000;0.000;2023-03-25T11:15:12;20.70;69.60
27016;DHT22;14557;0.000;0.000;2023-03-25T11:17:38;20.70;69.40
27016;DHT22;14557;0.000;0.000;2023-03-25T11:20:05;20.70;74.40
27016;DHT22;14557;0.000;0.000;2023-03-25T11:22:36;20.80;74.50
27016;DHT22;14557;0.000;0.000;2023-03-25T11:25:07;20.90;78.00
27016;DHT22;14557;0.000;0.000;2023-03-25T11:27:40;20.90;74.70
27016;DHT22;14557;0.000;0.000;2023-03-25T11:30:13;20.90;71.20
27016;DHT22;14557;0.000;0.000;2023-03-25T11:32:39;20.90;68.60
27016;DHT22;14557;0.000;0.000;2023-03-25T11:35:13;20.90;66.00
27016;DHT22;14557;0.000;0.000;2023-03-25T11:37:44;20.90;64.80
27016;DHT22;14557;0.000;0.000;2023-03-25T11:40:13;20.90;63.70
27016;DHT22;14557;0.000;0.000;2023-03-25T11:42:40;20.80;63.20
27016;DHT22;14557;0.000;0.000;2023-03-25T11:45:17;20.80;62.80
27016;DHT22;14557;0.000;0.000;2023-03-25T11:47:44;20.80;62.30
27016;DHT22;14557;0.000;0.000;2023-03-25T11:50:17;20.80;62.00
27016;DHT22;14557;0.000;0.000;2023-03-25T11:52:43;20.80;61.80
27016;DHT22;14557;0.000;0.000;2023-03-25T11:55:22;20.70;61.40
27016;DHT22;14557;0.000;0.000;2023-03-25T11:57:48;20.70;61.20
27016;DHT22;14557;0.000;0.000;2023-03-25T12:02:57;20.70;60.70
27016;DHT22;14557;0.000;0.000;2023-03-25T12:05:23;20.70;60.60
27016;DHT22;14557;0.000;0.000;2023-03-25T12:07:50;20.70;60.40
27016;DHT22;14557;0.000;0.000;2023-03-25T12:10:17;20.70;60.30
27016;DHT22;14557;0.000;0.000;2023-03-25T12:15:18;20.70;60.30
27016;DHT22;14557;0.000;0.000;2023-03-25T12:25:23;20.60;59.70
27016;DHT22;14557;0.000;0.000;2023-03-25T12:33:19;20.60;62.70
27016;DHT22;14557;0.000;0.000;2023-03-25T12:49:18;20.70;61.70
27016;DHT22;14557;0.000;0.000;2023-03-25T12:57:08;20.70;60.60
27016;DHT22;14557;0.000;0.000;2023-03-25T12:59:50;20.70;60.50
27016;DHT22;14557;0.000;0.000;2023-03-25T13:05:00;20.70;60.20
27016;DHT22;14557;0.000;0.000;2023-03-25T13:07:31;20.70;60.10
27016;DHT22;14557;0.000;0.000;2023-03-25T13:12:45;20.70;59.90
27016;DHT22;14557;0.000;0.000;2023-03-25T13:15:17;20.70;60.60
27016;DHT22;14557;0.000;0.000;2023-03-25T13:17:45;20.70;59.80
27016;DHT22;14557;0.000;0.000;2023-03-25T13:20:12;20.70;59.60
27016;DHT22;14557;0.000;0.000;2023-03-25T13:22:43;20.70;59.70
27016;DHT22;14557;0.000;0.000;2023-03-25T13:25:30;20.70;59.50
27016;DHT22;14557;0.000;0.000;2023-03-25T13:27:59;20.70;59.50
27016;DHT22;14557;0.000;0.000;2023-03-25T13:30:32;20.70;59.40
27016;DHT22;14557;0.000;0.000;2023-03-25T13:33:32;20.70;59.40
27016;DHT22;14557;0.000;0.000;2023-03-25T13:35:58;20.70;59.80
27016;DHT22;14557;0.000;0.000;2023-03-25T13:38:30;20.70;60.00
27016;DHT22;14557;0.000;0.000;2023-03-25T13:41:07;20.70;61.40
27016;DHT22;14557;0.000;0.000;2023-03-25T13:46:09;20.70;60.70
27016;DHT22;14557;0.000;0.000;2023-03-25T13:48:45;20.70;60.00
27016;DHT22;14557;0.000;0.000;2023-03-25T13:51:11;20.70;59.80
27016;DHT22;14557;0.000;0.000;2023-03-25T13:56:30;20.80;61.20
27016;DHT22;14557;0.000;0.000;2023-03-25T14:01:38;20.80;60.30
27016;DHT22;14557;0.000;0.000;2023-03-25T14:09:16;20.80;60.00
27016;DHT22;14557;0.000;0.000;2023-03-25T14:11:49;20.80;59.80
27016;DHT22;14557;0.000;0.000;2023-03-25T14:14:19;20.80;60.80
27016;DHT22;14557;0.000;0.000;2023-03-25T14:16:48;20.90;62.10
27016;DHT22;14557;0.000;0.000;2023-03-25T14:19:15;20.90;61.50
27016;DHT22;14557;0.000;0.000;2023-03-25T14:21:49;20.90;63.10
27016;DHT22;14557;0.000;0.000;2023-03-25T14:24:17;21.00;61.80
27016;DHT22;14557;0.000;0.000;2023-03-25T14:26:49;21.00;62.50
27016;DHT22;14557;0.000;0.000;2023-03-25T14:29:21;21.00;64.20
27016;DHT22;14557;0.000;0.000;2023-03-25T14:32:02;21.00;63.80
27016;DHT22;14557;0.000;0.000;2023-03-25T14:34:28;21.00;64.00
27016;DHT22;14557;0.000;0.000;2023-03-25T14:44:23;21.30;76.30
27016;DHT22;14557;0.000;0.000;2023-03-25T14:52:25;21.50;88.10
27016;DHT22;14557;0.000;0.000;2023-03-25T14:54:52;21.50;74.60
27016;DHT22;14557;0.000;0.000;2023-03-25T14:57:22;21.50;73.40
27016;DHT22;14557;0.000;0.000;2023-03-25T14:59:50;21.50;71.20
27016;DHT22;14557;0.000;0.000;2023-03-25T15:02:25;21.50;69.10
27016;DHT22;14557;0.000;0.000;2023-03-25T15:04:52;21.50;66.80
27016;DHT22;14557;0.000;0.000;2023-03-25T15:07:19;21.50;63.30
27016;DHT22;14557;0.000;0.000;2023-03-25T15:10:03;21.60;62.30
27016;DHT22;14557;0.000;0.000;2023-03-25T15:12:30;21.60;62.60
27016;DHT22;14557;0.000;0.000;2023-03-25T15:15:02;21.60;67.40
27016;DHT22;14557;0.000;0.000;2023-03-25T15:17:38;21.60;63.50
27016;DHT22;14557;0.000;0.000;2023-03-25T15:22:36;21.50;60.60
27016;DHT22;14557;0.000;0.000;2023-03-25T15:25:02;21.50;59.60
27016;DHT22;14557;0.000;0.000;2023-03-25T15:37:58;21.40;58.50
27016;DHT22;14557;0.000;0.000;2023-03-25T15:56:11;21.20;57.60
27016;DHT22;14557;0.000;0.000;2023-03-25T15:58:38;21.20;57.10
27016;DHT22;14557;0.000;0.000;2023-03-25T16:01:13;21.20;56.60
27016;DHT22;14557;0.000;0.000;2023-03-25T16:03:41;21.20;61.40
27016;DHT22;14557;0.000;0.000;2023-03-25T16:06:07;21.30;59.30
27016;DHT22;14557;0.000;0.000;2023-03-25T16:08:41;21.30;58.50
27016;DHT22;14557;0.000;0.000;2023-03-25T16:11:14;21.30;58.00
27016;DHT22;14557;0.000;0.000;2023-03-25T16:13:40;21.30;58.50
27016;DHT22;14557;0.000;0.000;2023-03-25T16:16:06;21.30;58.20
27016;DHT22;14557;0.000;0.000;2023-03-25T16:18:33;21.30;57.30
27016;DHT22;14557;0.000;0.000;2023-03-25T16:20:59;21.20;57.60
27016;DHT22;14557;0.000;0.000;2023-03-25T16:23:26;21.20;57.60
27016;DHT22;14557;0.000;0.000;2023-03-25T16:25:51;21.20;57.40
27016;DHT22;14557;0.000;0.000;2023-03-25T16:28:18;21.30;57.80
27016;DHT22;14557;0.000;0.000;2023-03-25T16:30:49;21.20;57.60
27016;DHT22;14557;0.000;0.000;2023-03-25T16:33:18;21.30;57.30
27016;DHT22;14557;0.000;0.000;2023-03-25T16:35:48;21.20;56.90
27016;DHT22;14557;0.000;0.000;2023-03-25T16:38:15;21.20;56.90
27016;DHT22;14557;0.000;0.000;2023-03-25T16:40:42;21.20;56.90
27016;DHT22;14557;0.000;0.000;2023-03-25T16:43:15;21.20;56.80
27016;DHT22;14557;0.000;0.000;2023-03-25T16:45:42;21.20;56.80
27016;DHT22;14557;0.000;0.000;2023-03-25T16:48:12;21.10;56.70
27016;DHT22;14557;0.000;0.000;2023-03-25T16:50:38;21.10;56.70
27016;DHT22;14557;0.000;0.000;2023-03-25T16:53:04;21.10;56.80
27016;DHT22;14557;0.000;0.000;2023-03-25T16:55:41;21.00;57.10
27016;DHT22;14557;0.000;0.000;2023-03-25T16:58:12;21.10;57.10
27016;DHT22;14557;0.000;0.000;2023-03-25T17:00:39;21.10;58.20
27016;DHT22;14557;0.000;0.000;2023-03-25T17:03:13;21.10;57.60
27016;DHT22;14557;0.000;0.000;2023-03-25T17:05:49;21.10;57.40
27016;DHT22;14557;0.000;0.000;2023-03-25T17:08:15;21.10;57.60
27016;DHT22;14557;0.000;0.000;2023-03-25T17:10:45;21.10;58.60
27016;DHT22;14557;0.000;0.000;2023-03-25T17:13:30;21.10;59.70
27016;DHT22;14557;0.000;0.000;2023-03-25T17:15:59;21.10;60.70
27016;DHT22;14557;0.000;0.000;2023-03-25T17:18:26;21.10;61.10
27016;DHT22;14557;0.000;0.000;2023-03-25T17:20:53;21.10;61.20
27016;DHT22;14557;0.000;0.000;2023-03-25T17:23:34;21.10;60.80
27016;DHT22;14557;0.000;0.000;2023-03-25T17:30:54;21.00;61.50
27016;DHT22;14557;0.000;0.000;2023-03-25T17:35:51;21.00;62.10
27016;DHT22;14557;0.000;0.000;2023-03-25T17:38:21;21.00;62.20
27016;DHT22;14557;0.000;0.000;2023-03-25T17:40:56;20.90;62.20
27016;DHT22;14557;0.000;0.000;2023-03-25T17:43:21;20.90;62.20
27016;DHT22;14557;0.000;0.000;2023-03-25T17:45:49;20.90;61.60
27016;DHT22;14557;0.000;0.000;2023-03-25T17:48:15;20.90;61.50
27016;DHT22;14557;0.000;0.000;2023-03-25T17:50:50;20.90;62.60
27016;DHT22;14557;0.000;0.000;2023-03-25T17:53:16;20.90;61.90
27016;DHT22;14557;0.000;0.000;2023-03-25T17:55:42;20.80;60.50
27016;DHT22;14557;0.000;0.000;2023-03-25T17:58:07;20.80;61.10
27016;DHT22;14557;0.000;0.000;2023-03-25T18:00:33;20.80;61.50
27016;DHT22;14557;0.000;0.000;2023-03-25T18:03:00;20.80;61.50
27016;DHT22;14557;0.000;0.000;2023-03-25T18:05:25;20.70;60.60
27016;DHT22;14557;0.000;0.000;2023-03-25T18:07:51;20.70;61.10
27016;DHT22;14557;0.000;0.000;2023-03-25T18:10:18;20.70;62.80
27016;DHT22;14557;0.000;0.000;2023-03-25T18:12:45;20.70;63.60
27016;DHT22;14557;0.000;0.000;2023-03-25T18:15:11;20.70;63.90
27016;DHT22;14557;0.000;0.000;2023-03-25T18:17:36;20.70;64.30
27016;DHT22;14557;0.000;0.000;2023-03-25T18:20:09;20.60;64.20
27016;DHT22;14557;0.000;0.000;2023-03-25T18:22:37;20.60;64.60
27016;DHT22;14557;0.000;0.000;2023-03-25T18:25:02;20.60;64.50
27016;DHT22;14557;0.000;0.000;2023-03-25T18:27:28;20.60;64.70
27016;DHT22;14557;0.000;0.000;2023-03-25T18:29:53;20.60;65.00
27016;DHT22;14557;0.000;0.000;2023-03-25T18:32:19;20.60;64.70
27016;DHT22;14557;0.000;0.000;2023-03-25T18:34:45;20.50;63.70
27016;DHT22;14557;0.000;0.000;2023-03-25T18:37:11;20.50;64.00
27016;DHT22;14557;0.000;0.000;2023-03-25T18:39:36;20.50;63.90
27016;DHT22;14557;0.000;0.000;2023-03-25T18:42:02;20.50;61.40
27016;DHT22;14557;0.000;0.000;2023-03-25T18:44:28;20.60;62.20